CRH weather

Cherrabah Airport
Cherrabah Homestead Resort, Queensland, Australia

Public forecast

Using degrees Celsius for public forecast. Weather courtesy of forecast.io.

Closest aviation weather report (METAR) to Cherrabah Airport

Closest report is RAAF Base Amberley, 57.8 nm (107.0 km) NE. Retrieved 2019/10/16 18:30 UTC (1 minute ago):

YAMB 161830Z AUTO 05008KT 9999 // NCD 19/17 Q1013

Closest aviation forecast (TAF) to Cherrabah Airport

Closest forecast is RAAF Base Amberley, 57.8 nm (107.0 km) NE. Retrieved 2019/10/16 18:00 UTC (31 minutes ago):

TAF YAMB 161611Z 1618/1712 20006KT 9999 BKN025 FM162100 35012KT 9999 SCT030 FM170000 33015G28KT 9999 FEW040 FM170800 33013KT 9999 FEW040 PROB30 TEMPO 1705/1711 VRB20G45KT 3000 TSRA BKN020 SCT050CB